Time;durP1;ratioP1;P1;durP2;ratioP2;P2;SDS_P1;SDS_P2;PMS_P1;PMS_P2;Temp;Humidity;BMP_temperature;BMP_pressure;BME280_temperature;BME280_humidity;BME280_pressure;Samples;Min_cycle;Max_cycle;Signal;HPM_P1;HPM_P2
2024/03/25 00:02:13;;;;;;;11.43;1.80;;;6.10;99.90;;;;;;5050582;28;20021;-51
2024/03/25 00:04:39;;;;;;;10.93;1.83;;;6.10;99.90;;;;;;5050781;28;20048;-49
2024/03/25 00:07:04;;;;;;;11.98;1.90;;;6.10;99.90;;;;;;5049766;28;20147;-47
2024/03/25 00:09:30;;;;;;;17.80;1.92;;;6.10;99.90;;;;;;5047321;28;20496;-44
2024/03/25 00:11:56;;;;;;;14.15;2.30;;;6.10;99.90;;;;;;5048467;28;20477;-41
2024/03/25 00:14:22;;;;;;;14.93;1.80;;;6.10;99.90;;;;;;5051495;28;20025;-44
2024/03/25 00:16:48;;;;;;;12.77;1.90;;;6.20;99.90;;;;;;5036385;28;20068;-45
2024/03/25 00:19:13;;;;;;;12.07;2.03;;;6.20;99.90;;;;;;5032412;28;20021;-46
2024/03/25 00:21:39;;;;;;;7.63;1.42;;;6.30;99.90;;;;;;5044562;28;20033;-44
2024/03/25 00:24:05;;;;;;;21.58;2.67;;;6.30;99.90;;;;;;5053154;28;20028;-44
2024/03/25 00:26:30;;;;;;;22.25;2.63;;;6.30;99.90;;;;;;5055613;28;20054;-44
2024/03/25 00:28:56;;;;;;;10.43;1.63;;;6.30;99.90;;;;;;5054145;28;20053;-43
2024/03/25 00:31:22;;;;;;;6.30;1.08;;;6.30;99.90;;;;;;5054943;28;20025;-46
2024/03/25 00:33:47;;;;;;;13.98;2.03;;;6.20;99.90;;;;;;5039209;28;20037;-45
2024/03/25 00:36:13;;;;;;;10.00;1.52;;;6.10;99.90;;;;;;5043850;28;20025;-45
2024/03/25 00:38:39;;;;;;;9.13;1.63;;;6.00;99.90;;;;;;5054620;28;20037;-45
2024/03/25 00:41:04;;;;;;;3.50;1.40;;;6.00;99.90;;;;;;5054967;28;20036;-44
2024/03/25 00:43:30;;;;;;;12.13;2.30;;;5.90;99.90;;;;;;5055218;28;20398;-44
2024/03/25 00:45:56;;;;;;;6.88;1.45;;;5.90;99.90;;;;;;5054218;28;20025;-44
2024/03/25 00:48:22;;;;;;;16.52;2.15;;;5.90;99.90;;;;;;5053696;28;20026;-43
2024/03/25 00:50:48;;;;;;;9.75;1.38;;;5.80;99.90;;;;;;5054779;28;20500;-45
2024/03/25 00:53:14;;;;;;;10.38;2.22;;;5.80;99.90;;;;;;5054759;28;20025;-45
2024/03/25 00:55:40;;;;;;;10.88;1.60;;;5.80;99.90;;;;;;5055041;28;20112;-45
2024/03/25 00:58:06;;;;;;;7.00;1.27;;;5.80;99.90;;;;;;5052826;28;20029;-43
2024/03/25 01:00:32;;;;;;;15.32;2.10;;;5.80;99.90;;;;;;5042845;28;20017;-45
2024/03/25 01:02:57;;;;;;;11.63;1.33;;;5.70;99.90;;;;;;5053818;28;20151;-44
2024/03/25 01:05:23;;;;;;;7.53;1.40;;;5.70;99.90;;;;;;5052710;28;20470;-46
2024/03/25 01:07:48;;;;;;;11.40;1.77;;;5.70;99.90;;;;;;5053137;28;20025;-48
2024/03/25 01:10:15;;;;;;;7.25;2.00;;;5.70;99.90;;;;;;5053443;28;20161;-43
2024/03/25 01:12:41;;;;;;;14.43;1.50;;;5.60;99.90;;;;;;5054252;28;20025;-46
2024/03/25 01:15:09;;;;;;;7.85;1.60;;;5.60;99.90;;;;;;5054259;28;20405;-45
2024/03/25 01:17:35;;;;;;;;;;;5.60;99.90;;;;;;5055384;28;20397;-44
2024/03/25 01:20:01;;;;;;;8.48;1.92;;;5.60;99.90;;;;;;5048168;28;19919;-44
2024/03/25 01:22:27;;;;;;;9.55;1.45;;;5.60;99.90;;;;;;5054856;28;20029;-44
2024/03/25 01:24:52;;;;;;;13.82;2.25;;;5.50;99.90;;;;;;5052501;28;20085;-43
2024/03/25 01:27:18;;;;;;;30.55;2.88;;;5.50;99.90;;;;;;5054558;28;20477;-43
2024/03/25 01:29:43;;;;;;;16.25;2.65;;;5.50;99.90;;;;;;5053181;28;20443;-42
2024/03/25 01:32:09;;;;;;;8.10;1.52;;;5.40;99.90;;;;;;5052592;28;20021;-42
2024/03/25 01:34:34;;;;;;;13.70;1.77;;;5.40;99.90;;;;;;5051349;28;20500;-44
2024/03/25 01:37:00;;;;;;;5.88;1.48;;;5.40;99.90;;;;;;5049166;28;20060;-48
2024/03/25 01:39:26;;;;;;;19.25;3.22;;;5.40;99.90;;;;;;5051645;28;20025;-44
2024/03/25 01:41:51;;;;;;;6.65;1.50;;;5.40;99.90;;;;;;5053388;28;20013;-46
2024/03/25 01:44:17;;;;;;;7.63;1.83;;;5.30;99.90;;;;;;5045547;28;20469;-47
2024/03/25 01:46:43;;;;;;;9.13;1.42;;;5.30;99.90;;;;;;5053011;28;20025;-46
2024/03/25 01:49:09;;;;;;;19.08;1.95;;;5.30;99.90;;;;;;5052519;28;20028;-45
2024/03/25 01:51:36;;;;;;;11.30;2.10;;;5.30;99.90;;;;;;5053239;28;20029;-43
2024/03/25 01:54:02;;;;;;;9.00;1.30;;;5.30;99.90;;;;;;5052143;28;20481;-46
2024/03/25 01:56:33;;;;;;;12.95;1.60;;;5.30;99.90;;;;;;5052864;28;20107;-46
2024/03/25 01:59:00;;;;;;;6.43;2.05;;;5.30;99.90;;;;;;5052864;28;20078;-46
2024/03/25 02:01:26;;;;;;;7.68;1.65;;;5.40;99.90;;;;;;5050055;28;20545;-46
2024/03/25 02:03:54;;;;;;;6.25;1.52;;;5.40;99.90;;;;;;5052496;28;20020;-44
2024/03/25 02:06:21;;;;;;;15.05;1.83;;;5.50;99.90;;;;;;5052892;28;20496;-48
2024/03/25 02:08:48;;;;;;;5.65;1.58;;;5.50;99.90;;;;;;5053418;28;20096;-48
2024/03/25 02:11:15;;;;;;;10.30;1.70;;;5.60;99.90;;;;;;5050551;28;20055;-46
2024/03/25 02:13:41;;;;;;;9.18;2.13;;;5.60;99.90;;;;;;5053059;28;20102;-49
2024/03/25 02:16:07;;;;;;;16.48;2.13;;;5.70;99.90;;;;;;5049952;28;20493;-47
2024/03/25 02:18:33;;;;;;;13.10;1.83;;;5.70;99.90;;;;;;5052257;28;20469;-44
2024/03/25 02:20:59;;;;;;;13.13;1.85;;;5.80;99.90;;;;;;5052001;28;20025;-43
2024/03/25 02:23:26;;;;;;;12.77;2.60;;;5.80;99.90;;;;;;5039736;28;20128;-42
2024/03/25 02:25:52;;;;;;;7.85;1.60;;;5.80;99.90;;;;;;5050158;28;20036;-47
2024/03/25 02:28:18;;;;;;;6.20;1.85;;;5.90;99.90;;;;;;5050224;28;20393;-45
2024/03/25 02:30:44;;;;;;;15.07;1.95;;;5.90;99.90;;;;;;5047245;28;20029;-46
2024/03/25 02:33:10;;;;;;;9.75;1.83;;;5.90;99.90;;;;;;5053121;28;20036;-42
2024/03/25 02:35:38;;;;;;;10.68;3.05;;;6.00;99.90;;;;;;5045675;28;20031;-48
2024/03/25 02:38:04;;;;;;;18.75;1.38;;;6.00;99.90;;;;;;5048893;28;20021;-45
2024/03/25 02:40:31;;;;;;;6.93;1.77;;;5.90;99.90;;;;;;5046666;28;20120;-48
2024/03/25 02:42:57;;;;;;;13.80;1.98;;;6.00;99.90;;;;;;5052300;28;20025;-60
2024/03/25 02:45:22;;;;;;;16.83;3.05;;;5.90;99.90;;;;;;5052599;28;20428;-56
2024/03/25 02:47:48;;;;;;;22.27;2.08;;;5.90;99.90;;;;;;5052923;28;20449;-57
2024/03/25 02:50:14;;;;;;;12.73;2.75;;;5.90;99.90;;;;;;5052989;28;20489;-56
2024/03/25 02:52:40;;;;;;;7.28;1.67;;;5.90;99.90;;;;;;5052936;28;20025;-59
2024/03/25 02:55:06;;;;;;;15.27;2.30;;;5.80;99.90;;;;;;5052752;28;20055;-56
2024/03/25 02:57:31;;;;;;;11.10;2.15;;;5.80;99.90;;;;;;5052604;28;20043;-56
2024/03/25 02:59:57;;;;;;;13.98;2.80;;;5.90;99.90;;;;;;5052774;28;20044;-56
2024/03/25 03:02:23;;;;;;;25.02;2.40;;;5.90;99.90;;;;;;5052496;28;20461;-45
2024/03/25 03:04:48;;;;;;;16.77;1.92;;;6.00;99.90;;;;;;5052630;28;20048;-50
2024/03/25 03:07:14;;;;;;;10.43;2.08;;;6.00;99.90;;;;;;5052594;28;20036;-44
2024/03/25 03:09:40;;;;;;;5.30;1.67;;;6.00;99.90;;;;;;5052720;28;20063;-49
2024/03/25 03:12:05;;;;;;;7.85;2.33;;;6.00;99.90;;;;;;5052642;28;20535;-46
2024/03/25 03:14:31;;;;;;;5.75;1.70;;;5.90;99.90;;;;;;5052341;28;20393;-47
2024/03/25 03:17:04;;;;;;;9.05;1.40;;;5.90;99.90;;;;;;5052415;28;20480;-50
2024/03/25 03:19:30;;;;;;;10.65;1.50;;;5.80;99.90;;;;;;5049981;28;20033;-49
2024/03/25 03:21:56;;;;;;;8.27;2.45;;;5.80;99.90;;;;;;5051139;28;20381;-49
2024/03/25 03:24:21;;;;;;;13.52;2.22;;;5.80;99.90;;;;;;5051245;28;20485;-49
2024/03/25 03:26:47;;;;;;;12.07;2.95;;;5.80;99.90;;;;;;5044158;28;20055;-45
2024/03/25 03:29:12;;;;;;;10.68;1.55;;;5.80;99.90;;;;;;5044097;28;20113;-46
2024/03/25 03:31:38;;;;;;;12.82;2.83;;;5.80;99.90;;;;;;5041043;28;20381;-51
2024/03/25 03:34:04;;;;;;;8.73;2.05;;;5.80;99.90;;;;;;5050762;28;20029;-47
2024/03/25 03:36:29;;;;;;;14.60;2.30;;;5.80;99.90;;;;;;5049199;28;20036;-47
2024/03/25 03:38:55;;;;;;;6.40;1.70;;;5.80;99.90;;;;;;5033791;28;20034;-50
2024/03/25 03:41:21;;;;;;;16.17;2.28;;;5.80;99.90;;;;;;5061525;28;20024;-49
2024/03/25 03:43:46;;;;;;;9.27;2.03;;;5.80;99.90;;;;;;5072553;28;20043;-56
2024/03/25 03:46:12;;;;;;;10.70;2.00;;;5.70;99.90;;;;;;5059014;28;20025;-57
2024/03/25 03:48:38;;;;;;;6.75;1.35;;;5.70;99.90;;;;;;5051479;28;20029;-57
2024/03/25 03:51:08;;;;;;;6.13;1.73;;;5.60;99.90;;;;;;5052087;28;20105;-56
2024/03/25 03:53:34;;;;;;;8.50;1.38;;;5.70;99.90;;;;;;5052961;28;20477;-57
2024/03/25 03:56:04;;;;;;;7.68;1.58;;;5.70;99.90;;;;;;5054769;28;20032;-55
2024/03/25 03:58:29;;;;;;;12.90;1.45;;;5.70;99.90;;;;;;5046934;28;20546;-57
2024/03/25 04:00:55;;;;;;;9.15;1.63;;;5.60;99.90;;;;;;5039119;28;20116;-57
2024/03/25 04:03:22;;;;;;;9.63;2.38;;;5.60;99.90;;;;;;5055320;28;20064;-57
2024/03/25 04:05:47;;;;;;;4.75;1.35;;;5.60;99.90;;;;;;5055586;28;20063;-56
2024/03/25 04:08:13;;;;;;;13.80;1.63;;;5.50;99.90;;;;;;5056226;28;20432;-56
2024/03/25 04:10:39;;;;;;;11.73;1.45;;;5.50;99.90;;;;;;5055845;28;20033;-56
2024/03/25 04:13:06;;;;;;;11.80;1.85;;;5.40;99.90;;;;;;5056224;28;20063;-56
2024/03/25 04:15:39;;;;;;;9.60;1.85;;;5.40;99.90;;;;;;5040198;28;20049;-57
2024/03/25 04:18:05;;;;;;;8.68;1.90;;;5.30;99.90;;;;;;5047215;28;20068;-57
2024/03/25 04:20:41;;;;;;;6.55;1.48;;;5.30;99.90;;;;;;5053863;28;20025;-56
2024/03/25 04:23:07;;;;;;;10.32;2.08;;;5.30;99.90;;;;;;5056136;28;20043;-56
2024/03/25 04:25:37;;;;;;;12.63;2.10;;;5.20;99.90;;;;;;5054970;28;20025;-57
2024/03/25 04:28:03;;;;;;;13.90;2.22;;;5.20;99.90;;;;;;5054433;28;20024;-59
2024/03/25 04:30:29;;;;;;;6.28;1.23;;;5.10;99.90;;;;;;5053680;28;20028;-56
2024/03/25 04:32:54;;;;;;;25.73;1.80;;;5.10;99.90;;;;;;5052008;28;20491;-57
2024/03/25 04:35:20;;;;;;;9.43;2.00;;;5.00;99.90;;;;;;5053659;28;20025;-56
2024/03/25 04:37:46;;;;;;;16.48;1.67;;;5.00;99.90;;;;;;5052165;28;20481;-57
2024/03/25 04:40:14;;;;;;;16.23;2.08;;;5.00;99.90;;;;;;5055246;28;20026;-57
2024/03/25 04:42:40;;;;;;;11.88;1.63;;;5.00;99.90;;;;;;5050847;28;20371;-56
2024/03/25 04:45:06;;;;;;;12.77;2.03;;;4.90;99.90;;;;;;5060102;28;20484;-55
2024/03/25 04:47:32;;;;;;;7.18;1.58;;;4.90;99.90;;;;;;5055388;28;20114;-55
2024/03/25 04:49:58;;;;;;;4.90;1.50;;;4.80;99.90;;;;;;5052027;28;20111;-57
2024/03/25 04:52:25;;;;;;;10.07;1.75;;;4.80;99.90;;;;;;5054776;28;20029;-57
2024/03/25 04:54:51;;;;;;;10.70;1.98;;;4.80;99.90;;;;;;5055041;28;20384;-57
2024/03/25 04:57:16;;;;;;;9.98;1.67;;;4.70;99.90;;;;;;5054105;28;20025;-57
2024/03/25 04:59:42;;;;;;;9.57;1.75;;;4.70;99.90;;;;;;5044085;28;20119;-57
2024/03/25 05:02:08;;;;;;;10.63;1.80;;;4.60;99.90;;;;;;5053246;28;20028;-55
2024/03/25 05:04:33;;;;;;;4.18;1.80;;;4.60;99.90;;;;;;5066535;28;20482;-57
2024/03/25 05:06:59;;;;;;;7.38;2.28;;;4.60;99.90;;;;;;5040984;28;20041;-53
2024/03/25 05:09:25;;;;;;;6.38;1.48;;;4.60;99.90;;;;;;5053186;28;20482;-56
2024/03/25 05:11:50;;;;;;;8.80;2.35;;;4.50;99.90;;;;;;5054251;28;20299;-55
2024/03/25 05:14:16;;;;;;;13.25;2.38;;;4.50;99.90;;;;;;5045882;28;20512;-57
2024/03/25 05:16:41;;;;;;;8.48;2.72;;;4.50;99.90;;;;;;5053362;28;20052;-57
2024/03/25 05:19:08;;;;;;;12.23;2.35;;;4.50;99.90;;;;;;5048019;28;20387;-57
2024/03/25 05:21:34;;;;;;;8.27;2.75;;;4.50;99.90;;;;;;5044485;28;20056;-57
2024/03/25 05:23:59;;;;;;;14.15;2.17;;;4.50;99.90;;;;;;5049538;28;20087;-51
2024/03/25 05:26:25;;;;;;;10.57;2.20;;;4.40;99.90;;;;;;5054281;28;20028;-48
2024/03/25 05:28:57;;;;;;;11.93;2.55;;;4.40;99.90;;;;;;5053695;28;20025;-47
2024/03/25 05:31:23;;;;;;;12.88;3.05;;;4.40;99.90;;;;;;5061800;28;20017;-50
2024/03/25 05:33:49;;;;;;;7.25;2.88;;;4.40;99.90;;;;;;5053794;28;20033;-46
2024/03/25 05:36:15;;;;;;;12.32;2.85;;;4.40;99.90;;;;;;5053039;28;20413;-45
2024/03/25 05:38:42;;;;;;;11.25;2.78;;;4.40;99.90;;;;;;5054262;28;20077;-47
2024/03/25 05:41:08;;;;;;;5.77;2.70;;;4.40;99.90;;;;;;5049334;28;20558;-47
2024/03/25 05:43:34;;;;;;;13.40;3.03;;;4.40;99.90;;;;;;5051473;28;20032;-46
2024/03/25 05:46:00;;;;;;;9.68;2.65;;;4.40;99.90;;;;;;5055166;28;20501;-45
2024/03/25 05:48:26;;;;;;;22.73;3.45;;;4.40;99.90;;;;;;5051822;28;20429;-47
2024/03/25 05:51:05;;;;;;;12.50;3.55;;;4.40;99.90;;;;;;5045695;28;20059;-47
2024/03/25 05:53:31;;;;;;;10.45;3.88;;;4.40;99.90;;;;;;5043243;28;20037;-45
2024/03/25 05:55:59;;;;;;;14.15;3.72;;;4.40;99.90;;;;;;5047390;28;20029;-45
2024/03/25 05:58:25;;;;;;;17.98;3.40;;;4.50;99.90;;;;;;5053175;28;20056;-48
2024/03/25 06:00:51;;;;;;;13.82;3.00;;;4.50;99.90;;;;;;5050304;28;20048;-51
2024/03/25 06:03:17;;;;;;;6.95;2.30;;;4.50;99.90;;;;;;5062027;28;20465;-46
2024/03/25 06:05:43;;;;;;;11.65;2.88;;;4.60;99.90;;;;;;5053962;28;20538;-48
2024/03/25 06:08:18;;;;;;;11.85;3.78;;;4.60;99.90;;;;;;5050964;28;20112;-57
2024/03/25 06:10:43;;;;;;;6.43;2.05;;;4.70;99.90;;;;;;5034028;28;20500;-56
2024/03/25 06:13:09;;;;;;;13.82;2.70;;;4.70;99.90;;;;;;5047222;28;20025;-57
2024/03/25 06:15:35;;;;;;;17.23;2.83;;;4.80;99.90;;;;;;5073439;28;20055;-47
2024/03/25 06:18:01;;;;;;;3.97;2.20;;;4.80;99.90;;;;;;5052981;28;20036;-49
2024/03/25 06:20:26;;;;;;;8.20;2.90;;;4.90;99.90;;;;;;5049918;28;20040;-50
2024/03/25 06:22:52;;;;;;;19.02;3.35;;;4.90;99.90;;;;;;5050313;28;20040;-49
2024/03/25 06:25:17;;;;;;;9.07;2.67;;;5.00;99.90;;;;;;5060108;28;20377;-51
2024/03/25 06:27:43;;;;;;;7.82;2.55;;;5.10;99.90;;;;;;5052352;28;20086;-46
2024/03/25 06:35:38;;;;;;;21.42;2.70;;;5.30;99.90;;;;;;5046469;28;20040;-50
2024/03/25 06:38:04;;;;;;;13.95;2.92;;;5.30;99.90;;;;;;5053268;28;20420;-57
2024/03/25 06:40:30;;;;;;;15.60;2.92;;;5.40;99.90;;;;;;5052988;28;20033;-57
2024/03/25 06:42:57;;;;;;;6.95;1.85;;;5.50;99.90;;;;;;5046415;28;20029;-57
2024/03/25 06:45:22;;;;;;;15.18;2.95;;;5.50;99.90;;;;;;5042904;28;20502;-56
2024/03/25 06:47:48;;;;;;;7.72;2.65;;;5.60;99.90;;;;;;5052821;28;20150;-57
2024/03/25 06:50:14;;;;;;;10.95;2.83;;;5.70;99.90;;;;;;5045053;28;20024;-56
2024/03/25 06:52:40;;;;;;;18.90;2.45;;;5.80;99.90;;;;;;5048074;28;20025;-56
2024/03/25 06:55:06;;;;;;;22.13;2.78;;;5.90;99.90;;;;;;5051591;28;20067;-56
2024/03/25 06:57:32;;;;;;;19.02;3.05;;;6.00;99.90;;;;;;5047294;28;20025;-56
2024/03/25 07:00:00;;;;;;;11.40;2.63;;;6.00;99.90;;;;;;5035781;28;20029;-57
2024/03/25 07:02:25;;;;;;;15.50;3.03;;;6.10;99.90;;;;;;5051960;28;20104;-57
2024/03/25 07:04:51;;;;;;;14.45;5.05;;;6.20;99.90;;;;;;5052030;28;20104;-57
2024/03/25 07:07:16;;;;;;;15.40;2.58;;;6.30;99.90;;;;;;5051327;28;20112;-58
2024/03/25 07:09:42;;;;;;;20.50;4.00;;;6.40;99.90;;;;;;5050117;28;20536;-57
2024/03/25 07:12:08;;;;;;;10.45;3.08;;;6.50;99.90;;;;;;5051881;28;20017;-57
2024/03/25 07:14:34;;;;;;;20.92;3.05;;;6.50;99.90;;;;;;5049077;28;20028;-56
2024/03/25 07:17:00;;;;;;;15.57;3.47;;;6.60;99.90;;;;;;5052138;28;20056;-57
2024/03/25 07:19:25;;;;;;;17.77;2.78;;;6.70;99.90;;;;;;5051752;28;20032;-57
2024/03/25 07:21:51;;;;;;;19.58;2.35;;;6.80;99.90;;;;;;5050401;28;20474;-58
2024/03/25 07:24:16;;;;;;;13.18;2.70;;;6.90;99.90;;;;;;5052045;28;20124;-57
2024/03/25 07:26:42;;;;;;;10.57;2.50;;;7.00;99.90;;;;;;5052305;28;20473;-57
2024/03/25 07:29:08;;;;;;;49.33;5.13;;;7.10;99.90;;;;;;5040000;28;20029;-56
2024/03/25 07:31:34;;;;;;;49.67;7.20;;;7.20;99.90;;;;;;5055216;28;20104;-52
2024/03/25 07:33:59;;;;;;;76.57;5.47;;;7.30;99.90;;;;;;5052223;28;20128;-58
2024/03/25 07:36:25;;;;;;;28.38;3.40;;;7.40;99.90;;;;;;5048856;28;20026;-57
2024/03/25 07:38:50;;;;;;;32.78;4.20;;;7.40;99.90;;;;;;5050546;28;20116;-57
2024/03/25 07:41:16;;;;;;;22.08;2.85;;;7.50;99.90;;;;;;5052100;28;20440;-57
2024/03/25 07:43:42;;;;;;;17.23;2.67;;;7.60;99.90;;;;;;5050260;28;20025;-57
2024/03/25 07:46:07;;;;;;;15.73;2.63;;;7.70;99.90;;;;;;5051927;28;20021;-56
2024/03/25 07:48:33;;;;;;;14.73;2.60;;;7.80;99.90;;;;;;5050332;28;20029;-57
2024/03/25 07:50:59;;;;;;;10.50;2.33;;;7.90;99.90;;;;;;5043286;28;20482;-56
2024/03/25 07:53:25;;;;;;;16.17;2.60;;;7.90;99.90;;;;;;5051906;28;20119;-57
2024/03/25 07:55:51;;;;;;;18.42;3.20;;;8.00;99.90;;;;;;5051964;28;20068;-57
2024/03/25 07:58:17;;;;;;;16.55;3.05;;;8.00;99.90;;;;;;5052062;28;20033;-56
2024/03/25 08:00:42;;;;;;;16.70;2.50;;;8.10;99.90;;;;;;5051972;28;20466;-57
2024/03/25 08:03:08;;;;;;;16.42;2.70;;;8.20;99.90;;;;;;5050602;28;20413;-57
2024/03/25 08:05:33;;;;;;;10.50;2.80;;;8.30;99.90;;;;;;5052055;28;20394;-57
2024/03/25 08:07:59;;;;;;;10.88;3.03;;;8.40;99.90;;;;;;5051652;28;20025;-44
2024/03/25 08:10:25;;;;;;;14.95;2.65;;;8.50;99.90;;;;;;5049277;28;20539;-48
2024/03/25 08:12:50;;;;;;;11.32;2.45;;;8.60;99.90;;;;;;5051589;28;20474;-50
2024/03/25 08:15:16;;;;;;;26.30;3.97;;;8.80;99.90;;;;;;5050956;28;20033;-46
2024/03/25 08:17:42;;;;;;;16.98;3.05;;;9.00;99.90;;;;;;5051758;28;20032;-48
2024/03/25 08:20:08;;;;;;;10.60;2.85;;;9.10;99.90;;;;;;5046999;28;20025;-49
2024/03/25 08:22:34;;;;;;;11.88;2.88;;;9.20;99.90;;;;;;5051571;28;20074;-44
2024/03/25 08:24:59;;;;;;;18.98;3.92;;;9.30;99.90;;;;;;5051540;28;20481;-46
2024/03/25 08:27:28;;;;;;;9.38;3.13;;;9.40;99.90;;;;;;5052028;28;20029;-51
2024/03/25 08:29:54;;;;;;;15.25;2.75;;;9.50;99.90;;;;;;5051749;28;20481;-57
2024/03/25 08:32:19;;;;;;;15.85;2.55;;;9.50;99.90;;;;;;5046978;28;20025;-56
2024/03/25 08:34:45;;;;;;;15.98;2.55;;;9.60;99.90;;;;;;5044634;28;20033;-57
2024/03/25 08:37:11;;;;;;;12.90;3.05;;;9.60;99.90;;;;;;5047304;28;20090;-57
2024/03/25 08:39:37;;;;;;;25.23;2.92;;;9.70;99.90;;;;;;5052310;28;20108;-56
2024/03/25 08:42:02;;;;;;;14.43;2.88;;;9.80;99.90;;;;;;5054797;28;20370;-57
2024/03/25 08:44:28;;;;;;;21.63;2.72;;;9.90;99.90;;;;;;5055436;28;20043;-57
2024/03/25 08:46:54;;;;;;;8.82;2.17;;;10.00;99.90;;;;;;5055961;28;20010;-57
2024/03/25 08:49:19;;;;;;;17.05;1.77;;;10.00;99.90;;;;;;5064833;28;20078;-57
2024/03/25 08:51:45;;;;;;;15.23;2.28;;;10.10;99.90;;;;;;5073889;28;20021;-56
2024/03/25 08:54:11;;;;;;;15.55;2.67;;;10.20;99.90;;;;;;5054817;28;20505;-57
2024/03/25 08:56:36;;;;;;;16.20;1.92;;;10.30;99.90;;;;;;5054371;28;20021;-57
2024/03/25 08:59:03;;;;;;;8.15;2.88;;;10.30;99.90;;;;;;5053809;28;20037;-57
2024/03/25 09:01:30;;;;;;;13.30;1.67;;;10.30;99.90;;;;;;5053421;28;20385;-56
2024/03/25 09:03:56;;;;;;;15.80;1.57;;;10.30;99.90;;;;;;5053185;28;20017;-57
2024/03/25 09:06:21;;;;;;;9.00;2.33;;;10.50;99.90;;;;;;5054193;28;20321;-58
2024/03/25 09:11:32;;;;;;;18.17;2.03;;;10.90;99.90;;;;;;5052450;28;20046;-55
2024/03/25 09:13:57;;;;;;;4.45;1.92;;;11.00;99.90;;;;;;5053669;28;20552;-54
2024/03/25 09:16:23;;;;;;;12.23;1.67;;;11.10;99.90;;;;;;5051764;28;20155;-56
2024/03/25 09:18:49;;;;;;;13.43;1.92;;;11.20;99.90;;;;;;5054204;28;20033;-53
2024/03/25 09:21:14;;;;;;;11.90;2.42;;;11.20;99.90;;;;;;5054467;28;20052;-56
2024/03/25 09:23:40;;;;;;;14.07;2.10;;;11.00;99.90;;;;;;5049287;28;20070;-56
2024/03/25 09:26:05;;;;;;;13.50;3.05;;;10.80;99.90;;;;;;5040075;28;20465;-54
2024/03/25 09:28:31;;;;;;;8.27;3.17;;;10.90;99.90;;;;;;5054600;28;20108;-56
2024/03/25 09:30:56;;;;;;;13.18;2.80;;;11.10;99.90;;;;;;5054822;28;20170;-57
2024/03/25 09:33:22;;;;;;;12.15;3.08;;;11.30;99.90;;;;;;5054261;28;20396;-57
2024/03/25 09:35:49;;;;;;;11.20;2.88;;;11.50;99.90;;;;;;5052956;28;20021;-55
2024/03/25 09:38:15;;;;;;;8.80;2.70;;;11.60;99.90;;;;;;5051791;28;20115;-56
2024/03/25 09:40:41;;;;;;;9.85;2.72;;;11.60;99.90;;;;;;5052360;28;20537;-55
2024/03/25 09:43:17;;;;;;;11.60;2.78;;;11.50;99.90;;;;;;5050848;28;20458;-55
2024/03/25 09:45:48;;;;;;;13.20;3.15;;;11.60;99.90;;;;;;5049161;28;20033;-57
2024/03/25 09:48:16;;;;;;;13.05;3.00;;;11.60;99.90;;;;;;5048865;28;20355;-56
2024/03/25 09:50:43;;;;;;;21.73;4.20;;;11.60;99.90;;;;;;5041155;28;20029;-57
2024/03/25 09:53:09;;;;;;;36.75;5.30;;;11.80;99.90;;;;;;5051706;28;20616;-52
2024/03/25 09:55:35;;;;;;;11.65;4.35;;;12.00;99.90;;;;;;5052142;28;20025;-49
2024/03/25 09:58:02;;;;;;;17.10;3.03;;;12.10;99.90;;;;;;5042369;28;20401;-48
2024/03/25 10:00:28;;;;;;;12.05;3.25;;;12.20;99.90;;;;;;5037507;28;20031;-44
2024/03/25 10:02:54;;;;;;;13.65;3.63;;;12.30;99.90;;;;;;5048594;28;20394;-49
2024/03/25 10:05:20;;;;;;;7.40;3.08;;;12.30;99.90;;;;;;5053053;28;20017;-44
2024/03/25 10:07:46;;;;;;;5.80;3.10;;;12.40;99.90;;;;;;5053448;28;20033;-47
2024/03/25 10:10:11;;;;;;;17.10;3.95;;;12.40;99.90;;;;;;5053820;28;20104;-46
2024/03/25 10:12:37;;;;;;;15.77;4.22;;;12.40;99.90;;;;;;5053155;28;20079;-45
2024/03/25 10:15:04;;;;;;;10.40;3.67;;;12.40;99.90;;;;;;5052937;28;20031;-47
2024/03/25 10:17:33;;;;;;;11.75;4.65;;;12.30;99.90;;;;;;5052889;28;20620;-41
2024/03/25 10:19:59;;;;;;;10.73;3.88;;;12.40;99.90;;;;;;5052911;28;20028;-49
2024/03/25 10:22:25;;;;;;;22.42;4.95;;;12.50;99.90;;;;;;5053927;28;20028;-52
2024/03/25 10:24:50;;;;;;;14.25;3.92;;;12.70;99.90;;;;;;5052905;28;20056;-53
2024/03/25 10:27:23;;;;;;;13.63;3.70;;;12.80;99.90;;;;;;5052009;28;20017;-57
2024/03/25 10:29:55;;;;;;;10.30;4.20;;;12.70;99.90;;;;;;5050074;28;20036;-55
2024/03/25 10:32:24;;;;;;;14.18;4.35;;;12.80;99.90;;;;;;5051521;28;20025;-57
2024/03/25 10:34:50;;;;;;;16.77;4.30;;;12.70;99.90;;;;;;5035714;28;20386;-57
2024/03/25 10:37:17;;;;;;;13.40;3.05;;;12.70;99.90;;;;;;5052896;28;20032;-57
2024/03/25 10:39:50;;;;;;;14.73;4.07;;;12.80;99.90;;;;;;5053320;28;20377;-56
2024/03/25 10:42:19;;;;;;;11.77;3.50;;;12.90;99.90;;;;;;5052811;28;20021;-57
2024/03/25 10:44:47;;;;;;;20.08;3.72;;;13.00;99.90;;;;;;5052213;28;20470;-57
2024/03/25 10:47:17;;;;;;;;;;;13.00;99.90;;;;;;5052128;28;20021;-57
2024/03/25 10:49:55;;;;;;;8.82;3.58;;;13.10;99.90;;;;;;5033323;28;19916;-46
2024/03/25 10:52:23;;;;;;;12.38;3.72;;;13.10;99.90;;;;;;5044032;28;20406;-48
2024/03/25 10:54:49;;;;;;;6.00;3.58;;;13.00;99.90;;;;;;5051644;28;20063;-46
2024/03/25 10:57:17;;;;;;;8.57;4.03;;;12.90;99.90;;;;;;5051896;28;20025;-46
2024/03/25 10:59:45;;;;;;;8.30;3.93;;;12.90;99.90;;;;;;5052517;28;20025;-43
2024/03/25 11:02:12;;;;;;;13.52;3.95;;;12.70;99.90;;;;;;5042995;28;20276;-42
2024/03/25 11:04:40;;;;;;;11.20;4.57;;;12.70;99.90;;;;;;5044638;28;20036;-49
2024/03/25 11:07:09;;;;;;;;;;;12.90;99.90;;;;;;5051861;28;20071;-46
2024/03/25 11:09:34;;;;;;;6.95;3.80;;;13.10;99.90;;;;;;5049730;28;19983;-48
2024/03/25 11:12:01;;;;;;;13.25;4.05;;;13.10;99.90;;;;;;5051913;28;20540;-49
2024/03/25 11:14:28;;;;;;;10.95;4.30;;;13.20;99.90;;;;;;5052198;28;20021;-46
2024/03/25 11:16:54;;;;;;;12.70;4.07;;;13.50;99.90;;;;;;5052401;28;20053;-45
2024/03/25 11:19:24;;;;;;;11.35;4.07;;;13.70;99.90;;;;;;5052334;28;20551;-44
2024/03/25 11:21:50;;;;;;;14.57;3.80;;;13.80;99.90;;;;;;5052533;28;20429;-43
2024/03/25 11:24:26;;;;;;;9.18;3.63;;;13.90;99.90;;;;;;5052414;28;20048;-44
2024/03/25 11:26:53;;;;;;;10.00;4.53;;;13.80;99.90;;;;;;5052290;28;20024;-47
2024/03/25 11:29:18;;;;;;;9.68;4.30;;;13.70;99.90;;;;;;5051674;28;20052;-44
2024/03/25 11:31:45;;;;;;;8.07;3.45;;;13.60;99.90;;;;;;5052159;28;20060;-47
2024/03/25 11:34:11;;;;;;;9.40;3.67;;;13.70;99.90;;;;;;5052499;28;20032;-43
2024/03/25 11:36:36;;;;;;;5.05;2.92;;;13.80;99.90;;;;;;5052207;28;20477;-47
2024/03/25 11:39:09;;;;;;;6.53;3.38;;;13.70;99.90;;;;;;5050106;28;20025;-49
2024/03/25 11:41:45;;;;;;;8.52;3.55;;;13.60;99.90;;;;;;5049233;28;20416;-46
2024/03/25 11:44:14;;;;;;;4.20;2.40;;;13.70;99.90;;;;;;5049237;28;20025;-48
2024/03/25 11:46:40;;;;;;;4.07;1.85;;;13.80;99.90;;;;;;5051300;28;20401;-50
2024/03/25 11:49:08;;;;;;;5.90;1.65;;;14.00;99.90;;;;;;5051726;28;20135;-42
2024/03/25 11:51:34;;;;;;;5.97;2.03;;;13.90;99.90;;;;;;5051187;28;20413;-45
2024/03/25 11:54:03;;;;;;;5.43;1.42;;;13.80;99.90;;;;;;5050933;28;20032;-43
2024/03/25 11:56:30;;;;;;;5.35;2.00;;;13.90;99.90;;;;;;5050735;28;20405;-47
2024/03/25 11:58:56;;;;;;;7.03;2.20;;;14.10;99.90;;;;;;5047419;28;20473;-46
2024/03/25 12:01:22;;;;;;;4.03;1.38;;;14.20;99.90;;;;;;5049445;28;20028;-47
2024/03/25 12:03:47;;;;;;;4.00;1.63;;;14.30;99.90;;;;;;5045135;28;20410;-44
2024/03/25 12:06:13;;;;;;;6.20;1.90;;;14.30;99.90;;;;;;5046786;28;20017;-43
2024/03/25 12:11:17;;;;;;;4.20;2.28;;;14.20;99.90;;;;;;5051123;28;20041;-43
2024/03/25 12:11:24;;;;;;;6.47;1.73;;;14.20;99.90;;;;;;5049289;28;20044;-43
2024/03/25 12:13:51;;;;;;;6.72;1.85;;;14.30;99.90;;;;;;5045089;28;20029;-45
2024/03/25 12:16:17;;;;;;;4.72;2.00;;;14.50;99.90;;;;;;5046281;28;20087;-53
2024/03/25 12:18:43;;;;;;;5.93;2.22;;;14.60;99.90;;;;;;5046034;28;20044;-56
2024/03/25 12:21:09;;;;;;;2.95;1.77;;;14.70;99.90;;;;;;5041598;28;20031;-56
2024/03/25 12:23:35;;;;;;;6.80;1.92;;;14.80;99.90;;;;;;5053132;28;20033;-53
2024/03/25 12:26:03;;;;;;;6.68;2.13;;;14.70;99.90;;;;;;5054063;28;20075;-56
2024/03/25 12:28:30;;;;;;;5.32;2.38;;;14.60;99.90;;;;;;5054246;28;20103;-56
2024/03/25 12:30:56;;;;;;;7.72;2.50;;;14.30;99.90;;;;;;5054740;28;20470;-58
2024/03/25 12:33:25;;;;;;;8.65;2.80;;;14.10;99.90;;;;;;5055110;28;20098;-56
2024/03/25 12:35:52;;;;;;;6.45;2.50;;;13.80;99.90;;;;;;5051291;28;20481;-57
2024/03/25 12:38:53;;;;;;;8.38;2.33;;;13.80;99.90;;;;;;5054894;28;20035;-55
2024/03/25 12:41:23;;;;;;;5.88;2.38;;;14.00;99.90;;;;;;5039055;28;20020;-56
2024/03/25 12:43:50;;;;;;;4.10;2.45;;;14.10;99.90;;;;;;5053129;28;20067;-55
2024/03/25 12:46:16;;;;;;;6.32;2.63;;;14.30;99.90;;;;;;5047386;28;20031;-56
2024/03/25 12:48:42;;;;;;;5.65;2.92;;;14.50;99.90;;;;;;5052134;28;20079;-56
2024/03/25 12:51:14;;;;;;;8.40;2.17;;;14.70;99.90;;;;;;5054433;28;20477;-56
2024/03/25 12:53:40;;;;;;;5.30;2.20;;;14.90;99.90;;;;;;5053054;28;20036;-56